Time;durP1;ratioP1;P1;durP2;ratioP2;P2;SDS_P1;SDS_P2;PMS_P1;PMS_P2;Temp;Humidity;BMP_temperature;BMP_pressure;BME280_temperature;BME280_humidity;BME280_pressure;Samples;Min_cycle;Max_cycle;Signal;HPM_P1;HPM_P2
2022/03/31 00:00:19;;;;;;;37.70;22.67;;;8.60;64.00;;;;;;5038081;28;20087;-57
2022/03/31 00:02:45;;;;;;;33.00;20.70;;;8.50;62.80;;;;;;5037844;28;20021;-57
2022/03/31 00:05:11;;;;;;;31.83;19.42;;;8.40;63.30;;;;;;5037911;28;20025;-56
2022/03/31 00:07:53;;;;;;;36.70;20.98;;;8.30;65.60;;;;;;5038018;28;20033;-58
2022/03/31 00:10:23;;;;;;;33.65;20.67;;;8.30;64.40;;;;;;5037787;28;20510;-56
2022/03/31 00:12:48;;;;;;;34.25;20.85;;;8.30;64.70;;;;;;5037949;28;20021;-56
2022/03/31 00:15:14;;;;;;;34.15;19.98;;;8.20;64.60;;;;;;5037846;28;20501;-55
2022/03/31 00:17:40;;;;;;;33.63;21.73;;;8.20;65.20;;;;;;5037722;28;20053;-57
2022/03/31 00:20:07;;;;;;;34.80;22.02;;;8.20;64.20;;;;;;5037703;28;20764;-56
2022/03/31 00:22:33;;;;;;;36.65;22.55;;;8.20;65.20;;;;;;5037668;28;20036;-56
2022/03/31 00:24:58;;;;;;;34.35;22.13;;;8.20;66.10;;;;;;5037382;28;20093;-57
2022/03/31 00:27:24;;;;;;;37.65;22.23;;;8.20;66.30;;;;;;5037831;28;20026;-58
2022/03/31 00:29:50;;;;;;;36.70;22.25;;;8.30;66.10;;;;;;5037389;28;20021;-56
2022/03/31 00:32:17;;;;;;;37.67;22.27;;;8.30;65.10;;;;;;5037282;28;20133;-57
2022/03/31 00:34:43;;;;;;;34.05;21.48;;;8.30;66.00;;;;;;5037624;28;20053;-57
2022/03/31 00:37:09;;;;;;;41.33;26.00;;;8.40;65.20;;;;;;5037632;28;20029;-55
2022/03/31 00:39:35;;;;;;;40.90;24.27;;;8.40;63.70;;;;;;5037619;28;20037;-57
2022/03/31 00:42:05;;;;;;;36.97;23.83;;;8.40;64.40;;;;;;5037621;28;20029;-56
2022/03/31 00:44:30;;;;;;;40.45;24.92;;;8.30;66.00;;;;;;5037289;28;20036;-57
2022/03/31 00:46:57;;;;;;;38.17;24.02;;;8.30;64.90;;;;;;5037488;28;20026;-55
2022/03/31 00:49:25;;;;;;;41.65;24.90;;;8.30;65.10;;;;;;5037487;28;20026;-57
2022/03/31 00:51:53;;;;;;;38.53;23.10;;;8.30;65.00;;;;;;5037122;28;20028;-57
2022/03/31 00:54:27;;;;;;;36.92;23.00;;;8.20;64.70;;;;;;5037246;28;20028;-58
2022/03/31 00:56:55;;;;;;;35.38;22.73;;;8.20;66.20;;;;;;5037222;28;20049;-56
2022/03/31 00:59:21;;;;;;;34.65;22.85;;;8.10;66.00;;;;;;5040241;28;20029;-58
2022/03/31 01:01:48;;;;;;;32.63;20.77;;;8.10;64.90;;;;;;5041756;28;20105;-57
2022/03/31 01:04:14;;;;;;;38.25;22.92;;;8.10;65.60;;;;;;5041103;28;20022;-56
2022/03/31 01:06:43;;;;;;;35.38;22.50;;;8.10;66.60;;;;;;5041163;28;20039;-56
2022/03/31 01:09:10;;;;;;;39.08;22.27;;;8.10;66.60;;;;;;5041294;28;20056;-57
2022/03/31 01:11:36;;;;;;;40.00;23.20;;;8.00;66.90;;;;;;5041175;28;20025;-58
2022/03/31 01:14:02;;;;;;;36.03;22.17;;;8.10;66.90;;;;;;5041130;28;20029;-57
2022/03/31 01:16:31;;;;;;;38.58;22.02;;;8.00;67.20;;;;;;5041057;28;20032;-54
2022/03/31 01:18:57;;;;;;;36.50;22.05;;;8.10;66.20;;;;;;5040795;28;20397;-56
2022/03/31 01:21:23;;;;;;;34.67;20.48;;;8.00;65.50;;;;;;5040868;28;20033;-57
2022/03/31 01:23:48;;;;;;;34.97;21.75;;;8.00;66.50;;;;;;5041078;28;20452;-57
2022/03/31 01:26:19;;;;;;;32.30;20.02;;;8.00;65.90;;;;;;5040674;28;20405;-57
2022/03/31 01:28:45;;;;;;;34.67;19.80;;;8.00;66.30;;;;;;5041206;28;20025;-58
2022/03/31 01:31:11;;;;;;;35.08;21.25;;;8.00;66.30;;;;;;5040738;28;20020;-57
2022/03/31 01:33:42;;;;;;;38.70;23.10;;;7.90;66.90;;;;;;5040661;28;20022;-57
2022/03/31 01:36:08;;;;;;;33.40;20.95;;;7.90;67.20;;;;;;5040511;28;20052;-55
2022/03/31 01:38:34;;;;;;;38.30;23.00;;;8.00;66.90;;;;;;5040616;28;20480;-58
2022/03/31 01:41:00;;;;;;;31.90;20.15;;;8.00;66.70;;;;;;5040543;28;20022;-55
2022/03/31 01:43:27;;;;;;;37.75;22.08;;;8.10;67.60;;;;;;5040464;28;20062;-56
2022/03/31 01:45:54;;;;;;;35.28;21.42;;;8.20;66.20;;;;;;5040478;28;20027;-57
2022/03/31 01:48:20;;;;;;;37.45;22.58;;;8.20;69.30;;;;;;5040431;28;20044;-56
2022/03/31 01:50:46;;;;;;;37.22;22.23;;;8.30;67.20;;;;;;5040323;28;20100;-56
2022/03/31 01:53:14;;;;;;;38.65;23.42;;;8.30;67.00;;;;;;5040616;28;20447;-57
2022/03/31 01:55:40;;;;;;;39.22;23.85;;;8.30;67.60;;;;;;5040416;28;20039;-57
2022/03/31 01:58:07;;;;;;;37.40;22.58;;;8.40;68.80;;;;;;5040216;28;20037;-56
2022/03/31 02:00:33;;;;;;;39.65;22.92;;;8.50;67.80;;;;;;5040387;28;20018;-58
2022/03/31 02:03:01;;;;;;;38.42;23.88;;;8.50;68.80;;;;;;5040190;28;20033;-56
2022/03/31 02:05:27;;;;;;;39.13;24.08;;;8.60;68.90;;;;;;5040015;28;20022;-56
2022/03/31 02:07:57;;;;;;;40.35;24.55;;;8.60;67.60;;;;;;5040350;28;20020;-58
2022/03/31 02:10:26;;;;;;;39.45;23.40;;;8.60;67.90;;;;;;5038960;28;20469;-56
2022/03/31 02:12:54;;;;;;;38.05;23.70;;;8.60;69.40;;;;;;5040278;28;20080;-57
2022/03/31 02:15:20;;;;;;;41.05;23.88;;;8.60;69.50;;;;;;5039925;28;20091;-56
2022/03/31 02:17:46;;;;;;;41.90;24.42;;;8.70;68.60;;;;;;5040331;28;20436;-57
2022/03/31 02:20:12;;;;;;;38.63;22.65;;;8.70;68.60;;;;;;5040021;28;20424;-57
2022/03/31 02:22:40;;;;;;;38.75;23.88;;;8.80;68.40;;;;;;5040139;28;20036;-56
2022/03/31 02:25:08;;;;;;;45.65;25.02;;;8.80;69.50;;;;;;5039635;28;20080;-57
2022/03/31 02:27:35;;;;;;;43.65;25.63;;;8.80;68.60;;;;;;5039574;28;20413;-57
2022/03/31 02:30:01;;;;;;;41.35;24.58;;;8.90;67.90;;;;;;5039856;28;20495;-57
2022/03/31 02:32:27;;;;;;;38.90;23.77;;;8.90;68.70;;;;;;5039797;28;20469;-56
2022/03/31 02:34:53;;;;;;;41.45;24.48;;;9.00;68.00;;;;;;5039495;28;20048;-57
2022/03/31 02:37:19;;;;;;;41.35;23.50;;;9.00;68.30;;;;;;5039817;28;20061;-56
2022/03/31 02:39:45;;;;;;;42.15;25.17;;;9.00;69.20;;;;;;5039739;28;20072;-57
2022/03/31 02:42:11;;;;;;;40.40;23.80;;;9.10;68.60;;;;;;5039423;28;20029;-57
2022/03/31 02:44:37;;;;;;;42.33;26.00;;;9.10;69.00;;;;;;5039249;28;20445;-57
2022/03/31 02:47:03;;;;;;;43.42;23.92;;;9.10;69.60;;;;;;5039733;28;20031;-56
2022/03/31 02:49:29;;;;;;;43.10;25.40;;;9.10;69.50;;;;;;5039349;28;20051;-58
2022/03/31 02:51:55;;;;;;;42.95;24.92;;;9.20;68.60;;;;;;5039229;28;20112;-57
2022/03/31 02:57:05;;;;;;;43.83;27.70;;;9.30;68.80;;;;;;5039636;28;20113;-57
2022/03/31 02:59:31;;;;;;;44.30;24.67;;;9.30;67.80;;;;;;5039012;28;20061;-58
2022/03/31 03:01:58;;;;;;;43.10;25.35;;;9.30;69.40;;;;;;5038863;28;20048;-54
2022/03/31 03:04:25;;;;;;;44.70;27.13;;;9.30;72.00;;;;;;5038944;28;20027;-58
2022/03/31 03:06:51;;;;;;;43.53;26.30;;;9.40;69.40;;;;;;5038926;28;20397;-57
2022/03/31 03:09:16;;;;;;;44.50;26.90;;;9.40;69.20;;;;;;5038876;28;20017;-58
2022/03/31 03:11:42;;;;;;;41.15;25.42;;;9.50;72.40;;;;;;5038849;28;20029;-58
2022/03/31 03:14:11;;;;;;;40.78;25.35;;;9.50;71.00;;;;;;5038829;28;20110;-57
2022/03/31 03:16:38;;;;;;;38.58;24.33;;;9.50;69.90;;;;;;5038626;28;20044;-57
2022/03/31 03:19:04;;;;;;;40.30;25.15;;;9.60;69.90;;;;;;5038916;28;20029;-57
2022/03/31 03:21:29;;;;;;;39.78;24.75;;;9.50;71.00;;;;;;5038651;28;20040;-57
2022/03/31 03:23:55;;;;;;;44.50;25.60;;;9.60;70.10;;;;;;5038932;28;20030;-58
2022/03/31 03:26:21;;;;;;;37.83;24.20;;;9.60;68.90;;;;;;5038435;28;20049;-57
2022/03/31 03:28:47;;;;;;;39.35;25.00;;;9.60;68.80;;;;;;5038734;28;20025;-57
2022/03/31 03:31:13;;;;;;;37.20;24.10;;;9.60;69.70;;;;;;5038527;28;20473;-56
2022/03/31 03:33:40;;;;;;;43.13;24.23;;;9.60;69.60;;;;;;5038888;28;20022;-57
2022/03/31 03:36:12;;;;;;;45.22;26.65;;;9.60;68.90;;;;;;5038386;28;20032;-57
2022/03/31 03:38:41;;;;;;;44.22;25.48;;;9.60;68.60;;;;;;5038113;28;20116;-57
2022/03/31 03:41:08;;;;;;;44.33;27.80;;;9.60;69.40;;;;;;5038345;28;20033;-55
2022/03/31 03:43:34;;;;;;;43.05;25.60;;;9.60;68.70;;;;;;5038168;28;20029;-56
2022/03/31 03:46:00;;;;;;;37.47;24.02;;;9.60;69.10;;;;;;5038276;28;20116;-58
2022/03/31 03:48:25;;;;;;;38.53;23.10;;;9.60;70.10;;;;;;5038485;28;20390;-57
2022/03/31 03:50:53;;;;;;;39.97;24.10;;;9.60;68.90;;;;;;5038249;28;20091;-57
2022/03/31 03:53:19;;;;;;;38.95;24.73;;;9.60;69.50;;;;;;5037972;28;20030;-54
2022/03/31 03:55:45;;;;;;;40.33;24.73;;;9.60;72.70;;;;;;5038125;28;20113;-57
2022/03/31 03:58:11;;;;;;;43.60;27.73;;;9.60;70.10;;;;;;5038063;28;20056;-56
2022/03/31 04:00:37;;;;;;;44.83;26.90;;;9.60;68.30;;;;;;5038162;28;20493;-57
2022/03/31 04:03:02;;;;;;;43.42;27.40;;;9.60;70.10;;;;;;5038124;28;20389;-57
2022/03/31 04:05:28;;;;;;;41.35;25.85;;;9.50;70.20;;;;;;5037769;28;20026;-57
2022/03/31 04:07:54;;;;;;;45.28;26.25;;;9.50;71.60;;;;;;5037800;28;20093;-57
2022/03/31 04:10:20;;;;;;;40.78;25.25;;;9.40;73.20;;;;;;5038136;28;20033;-54
2022/03/31 04:12:46;;;;;;;40.63;24.45;;;9.40;71.90;;;;;;5037924;28;20014;-57
2022/03/31 04:15:13;;;;;;;42.38;26.58;;;9.40;70.60;;;;;;5037882;28;20025;-58
2022/03/31 04:17:40;;;;;;;42.10;25.08;;;9.30;69.30;;;;;;5037825;28;20037;-58
2022/03/31 04:20:06;;;;;;;42.10;26.90;;;9.30;72.20;;;;;;5037527;28;20033;-57
2022/03/31 04:22:33;;;;;;;41.53;26.88;;;9.30;71.60;;;;;;5037705;28;20029;-56
2022/03/31 04:25:00;;;;;;;39.78;24.27;;;9.30;70.40;;;;;;5037250;28;20187;-56
2022/03/31 04:27:26;;;;;;;39.65;24.50;;;9.30;71.90;;;;;;5037808;28;20373;-55
2022/03/31 04:29:51;;;;;;;42.90;24.67;;;9.20;71.30;;;;;;5037463;28;20032;-56
2022/03/31 04:32:17;;;;;;;40.60;25.60;;;9.20;72.40;;;;;;5037339;28;20025;-56
2022/03/31 04:34:43;;;;;;;40.97;24.10;;;9.10;70.60;;;;;;5037215;28;20469;-55
2022/03/31 04:37:09;;;;;;;40.53;23.88;;;9.00;72.70;;;;;;5037633;28;20036;-56
2022/03/31 04:39:34;;;;;;;41.60;25.33;;;9.00;71.20;;;;;;5037736;28;20104;-55
2022/03/31 04:42:02;;;;;;;37.45;24.27;;;9.00;72.70;;;;;;5037638;28;20775;-58
2022/03/31 04:44:28;;;;;;;38.95;24.63;;;9.00;73.40;;;;;;5037455;28;20511;-52
2022/03/31 04:46:54;;;;;;;41.03;24.95;;;8.90;71.90;;;;;;5037548;28;20029;-55
2022/03/31 04:49:20;;;;;;;42.80;24.65;;;9.00;70.90;;;;;;5037344;28;20026;-57
2022/03/31 04:51:46;;;;;;;37.67;23.25;;;9.00;71.30;;;;;;5037500;28;20025;-58
2022/03/31 04:54:11;;;;;;;39.10;24.10;;;8.90;73.00;;;;;;5037708;28;20044;-57
2022/03/31 04:56:39;;;;;;;38.33;22.80;;;8.90;72.10;;;;;;5037413;28;20108;-56
2022/03/31 04:59:05;;;;;;;38.10;22.05;;;8.90;72.10;;;;;;5037399;28;20037;-56
2022/03/31 05:01:31;;;;;;;39.40;24.02;;;8.90;71.30;;;;;;5036683;28;20514;-57
2022/03/31 05:03:57;;;;;;;39.15;24.33;;;8.90;73.30;;;;;;5037004;28;20025;-58
2022/03/31 05:06:22;;;;;;;39.45;24.15;;;8.90;73.50;;;;;;5037188;28;20033;-57
2022/03/31 05:08:48;;;;;;;39.50;25.08;;;8.90;71.60;;;;;;5036782;28;20111;-56
2022/03/31 05:11:14;;;;;;;39.33;23.88;;;9.00;70.90;;;;;;5037022;28;20374;-54
2022/03/31 05:13:40;;;;;;;40.22;24.15;;;9.00;71.90;;;;;;5037023;28;20026;-57
2022/03/31 05:16:06;;;;;;;40.00;23.80;;;9.10;72.20;;;;;;5036845;28;20049;-53
2022/03/31 05:18:32;;;;;;;41.45;23.80;;;9.10;72.50;;;;;;5036945;28;20512;-54
2022/03/31 05:20:58;;;;;;;37.10;23.65;;;9.10;73.30;;;;;;5037092;28;20036;-57
2022/03/31 05:23:24;;;;;;;37.47;23.23;;;9.10;72.30;;;;;;5036928;28;20517;-54
2022/03/31 05:25:50;;;;;;;40.90;25.13;;;9.10;72.20;;;;;;5036594;28;20053;-52
2022/03/31 05:28:16;;;;;;;39.60;24.05;;;9.10;72.30;;;;;;5037085;28;20026;-54
2022/03/31 05:30:43;;;;;;;40.22;23.85;;;9.10;71.30;;;;;;5036921;28;20100;-57
2022/03/31 05:33:10;;;;;;;36.22;22.45;;;9.10;71.40;;;;;;5037206;28;20025;-54
2022/03/31 05:35:36;;;;;;;38.03;25.02;;;9.10;72.90;;;;;;5037062;28;20037;-57
2022/03/31 05:38:03;;;;;;;43.33;26.83;;;9.10;72.70;;;;;;5037157;28;20369;-55
2022/03/31 05:40:29;;;;;;;43.00;28.23;;;9.10;70.70;;;;;;5036709;28;20029;-53
2022/03/31 05:42:55;;;;;;;41.25;26.48;;;9.10;70.50;;;;;;5036704;28;20108;-55
2022/03/31 05:45:21;;;;;;;42.67;26.98;;;9.10;70.90;;;;;;5039675;28;20056;-53
2022/03/31 05:47:47;;;;;;;39.67;26.17;;;9.20;70.80;;;;;;5040607;28;20071;-55
2022/03/31 05:50:14;;;;;;;40.38;25.17;;;9.20;71.50;;;;;;5040367;28;20017;-58
2022/03/31 05:52:42;;;;;;;44.70;27.67;;;9.20;71.80;;;;;;5040418;28;20104;-56
2022/03/31 05:55:13;;;;;;;40.55;25.52;;;9.20;71.60;;;;;;5040304;28;20060;-56
2022/03/31 05:57:39;;;;;;;39.40;25.50;;;9.20;72.80;;;;;;5040126;28;20032;-55
2022/03/31 06:00:08;;;;;;;40.53;27.30;;;9.20;71.80;;;;;;5039938;28;20116;-56
2022/03/31 06:02:34;;;;;;;40.25;25.15;;;9.20;73.40;;;;;;5037946;28;20021;-57
2022/03/31 06:05:00;;;;;;;38.47;24.17;;;9.20;72.10;;;;;;5037970;28;20033;-56
2022/03/31 06:07:26;;;;;;;41.28;25.15;;;9.30;71.30;;;;;;5040250;28;20457;-56
2022/03/31 06:09:51;;;;;;;39.05;25.10;;;9.30;70.80;;;;;;5040037;28;20089;-57
2022/03/31 06:12:17;;;;;;;39.75;23.63;;;9.30;70.50;;;;;;5039877;28;20493;-53
2022/03/31 06:14:43;;;;;;;39.80;24.60;;;9.30;70.50;;;;;;5037903;28;20045;-55
2022/03/31 06:17:09;;;;;;;37.75;23.88;;;9.30;70.90;;;;;;5037864;28;20049;-56
2022/03/31 06:19:35;;;;;;;40.60;24.60;;;9.30;70.50;;;;;;5038755;28;20033;-58
2022/03/31 06:22:02;;;;;;;39.72;24.20;;;9.30;71.50;;;;;;5039350;28;20426;-54
2022/03/31 06:24:27;;;;;;;38.08;23.55;;;9.20;72.50;;;;;;5039587;28;20033;-56
2022/03/31 06:26:56;;;;;;;42.75;25.90;;;9.30;75.20;;;;;;5039411;28;20532;-56
2022/03/31 06:29:22;;;;;;;39.22;23.63;;;9.30;74.10;;;;;;5039815;28;20017;-55
2022/03/31 06:31:48;;;;;;;36.38;25.33;;;9.30;74.90;;;;;;5039599;28;20485;-56
2022/03/31 06:34:14;;;;;;;43.85;26.40;;;9.40;73.20;;;;;;5039262;28;20033;-57
2022/03/31 06:36:40;;;;;;;40.20;25.17;;;9.40;74.60;;;;;;5039887;28;20119;-57
2022/03/31 06:39:06;;;;;;;35.50;23.23;;;9.40;74.60;;;;;;5039625;28;20034;-58
2022/03/31 06:41:32;;;;;;;37.22;23.38;;;9.50;72.80;;;;;;5039564;28;20036;-57
2022/03/31 06:43:59;;;;;;;33.88;22.08;;;9.50;74.30;;;;;;5039293;28;20072;-56
2022/03/31 06:46:25;;;;;;;32.15;20.85;;;9.50;74.10;;;;;;5039276;28;20076;-55
2022/03/31 06:48:51;;;;;;;30.33;19.05;;;9.60;72.10;;;;;;5039252;28;20022;-57
2022/03/31 06:51:17;;;;;;;30.48;19.85;;;9.60;74.10;;;;;;5039163;28;20076;-57
2022/03/31 06:53:43;;;;;;;32.63;21.33;;;9.60;72.80;;;;;;5038999;28;20112;-56
2022/03/31 06:56:13;;;;;;;61.17;39.97;;;9.60;74.50;;;;;;5038433;28;20397;-55
2022/03/31 06:58:39;;;;;;;60.08;41.58;;;9.60;74.10;;;;;;5038836;28;20026;-54
2022/03/31 07:01:05;;;;;;;42.05;27.08;;;9.50;75.00;;;;;;5039031;28;20031;-54
2022/03/31 07:03:31;;;;;;;36.55;25.50;;;9.60;75.50;;;;;;5039445;28;20033;-58
2022/03/31 07:05:57;;;;;;;39.22;24.88;;;9.50;75.90;;;;;;5038877;28;20096;-57
2022/03/31 07:08:23;;;;;;;85.50;51.58;;;9.50;74.10;;;;;;5038675;28;20026;-55
2022/03/31 07:10:49;;;;;;;54.20;32.03;;;9.60;73.80;;;;;;5039152;28;20029;-56
2022/03/31 07:13:16;;;;;;;40.45;24.75;;;9.60;74.30;;;;;;5039381;28;20045;-57
2022/03/31 07:15:42;;;;;;;35.42;22.25;;;9.60;75.20;;;;;;5039190;28;20076;-53
2022/03/31 07:18:08;;;;;;;43.70;27.08;;;9.70;74.60;;;;;;5039096;28;20025;-57
2022/03/31 07:20:35;;;;;;;52.60;31.05;;;9.70;73.70;;;;;;5039245;28;20433;-56
2022/03/31 07:23:01;;;;;;;43.17;26.50;;;9.80;75.70;;;;;;5038982;28;20025;-57
2022/03/31 07:25:28;;;;;;;34.28;24.58;;;9.90;73.60;;;;;;5038844;28;20037;-55
2022/03/31 07:27:54;;;;;;;35.75;23.30;;;10.00;73.80;;;;;;5037627;28;20026;-57
2022/03/31 07:30:21;;;;;;;32.83;22.27;;;10.10;75.10;;;;;;5038877;28;20014;-53
2022/03/31 07:32:55;;;;;;;37.78;23.67;;;10.10;74.70;;;;;;5039012;28;20030;-57
2022/03/31 07:35:24;;;;;;;37.00;20.98;;;10.20;75.90;;;;;;5038971;28;20091;-56
2022/03/31 07:37:51;;;;;;;32.75;20.00;;;10.30;74.30;;;;;;5038521;28;20041;-54
2022/03/31 07:40:18;;;;;;;28.95;18.80;;;10.30;74.60;;;;;;5038850;28;20037;-57
2022/03/31 07:42:44;;;;;;;23.30;15.45;;;10.40;72.70;;;;;;5038831;28;20033;-57
2022/03/31 07:45:11;;;;;;;35.90;19.30;;;10.30;73.10;;;;;;5038466;28;20022;-55
2022/03/31 07:47:38;;;;;;;20.42;13.27;;;10.30;72.60;;;;;;5038348;28;20438;-56
2022/03/31 07:50:07;;;;;;;24.35;14.57;;;10.30;71.80;;;;;;5038867;28;20021;-57
2022/03/31 07:52:34;;;;;;;21.08;12.70;;;10.20;71.60;;;;;;5038620;28;20022;-57
2022/03/31 07:54:59;;;;;;;16.65;10.82;;;10.20;71.80;;;;;;5038482;28;20026;-55
2022/03/31 07:57:25;;;;;;;14.55;9.35;;;10.20;72.10;;;;;;5038318;28;20037;-56
2022/03/31 07:59:51;;;;;;;11.90;6.68;;;10.20;71.90;;;;;;5038359;28;20040;-55
2022/03/31 08:02:17;;;;;;;10.73;5.45;;;10.20;70.30;;;;;;5038439;28;20029;-56
2022/03/31 08:04:43;;;;;;;10.65;5.55;;;10.20;69.80;;;;;;5038183;28;20026;-56
2022/03/31 08:07:09;;;;;;;7.57;4.13;;;10.20;70.00;;;;;;5037722;28;20516;-57
2022/03/31 08:09:34;;;;;;;7.07;4.15;;;10.20;69.30;;;;;;5037786;28;20021;-57
2022/03/31 08:12:00;;;;;;;8.02;4.45;;;10.20;69.40;;;;;;5038465;28;20025;-55
2022/03/31 08:14:26;;;;;;;8.07;4.22;;;10.30;68.90;;;;;;5038134;28;20030;-57
2022/03/31 08:16:52;;;;;;;9.63;5.10;;;10.40;68.20;;;;;;5038015;28;20041;-56
2022/03/31 08:19:19;;;;;;;9.20;5.38;;;10.30;68.50;;;;;;5038327;28;20056;-58
2022/03/31 08:21:46;;;;;;;9.27;4.93;;;10.30;68.50;;;;;;5037881;28;20160;-57
2022/03/31 08:24:13;;;;;;;9.70;5.30;;;10.20;68.70;;;;;;5037878;28;20025;-57
2022/03/31 08:26:43;;;;;;;10.43;4.97;;;10.20;69.00;;;;;;5037508;28;20080;-57
2022/03/31 08:29:10;;;;;;;8.57;4.95;;;10.30;69.60;;;;;;5037867;28;20045;-55
2022/03/31 08:31:37;;;;;;;9.50;4.80;;;10.50;69.80;;;;;;5038080;28;20462;-55
2022/03/31 08:34:03;;;;;;;6.82;3.25;;;10.70;69.80;;;;;;5037971;28;20018;-57
2022/03/31 08:36:29;;;;;;;6.55;2.92;;;11.00;68.10;;;;;;5037761;28;20029;-56
2022/03/31 08:38:55;;;;;;;5.15;3.03;;;11.10;66.40;;;;;;5038050;28;20032;-55
2022/03/31 08:41:27;;;;;;;6.38;2.60;;;11.10;66.50;;;;;;5037699;28;20152;-53
2022/03/31 08:43:54;;;;;;;4.82;2.55;;;11.00;66.30;;;;;;5037635;28;20147;-57
2022/03/31 08:46:22;;;;;;;4.13;1.58;;;10.90;65.20;;;;;;5037886;28;20030;-58
2022/03/31 08:48:48;;;;;;;5.90;1.60;;;10.80;65.30;;;;;;5037444;28;20397;-57
2022/03/31 08:51:15;;;;;;;2.65;1.20;;;10.70;65.50;;;;;;5037602;28;20028;-56
2022/03/31 08:53:41;;;;;;;2.28;1.27;;;10.60;65.10;;;;;;5037606;28;20053;-57
2022/03/31 08:56:10;;;;;;;2.47;1.42;;;10.50;65.30;;;;;;5037979;28;20037;-57
2022/03/31 08:58:36;;;;;;;3.33;1.08;;;10.60;65.60;;;;;;5037571;28;20026;-57
2022/03/31 09:01:02;;;;;;;4.32;1.50;;;10.80;65.50;;;;;;5037474;28;20516;-56
2022/03/31 09:03:35;;;;;;;3.90;1.10;;;11.10;65.40;;;;;;5037695;28;20493;-57
2022/03/31 09:06:01;;;;;;;2.53;1.10;;;11.50;64.70;;;;;;5037571;28;20032;-56
2022/03/31 09:08:27;;;;;;;1.00;0.80;;;12.00;64.80;;;;;;5037301;28;20385;-57
2022/03/31 09:10:58;;;;;;;1.30;1.20;;;12.30;63.00;;;;;;5037592;28;20021;-54
2022/03/31 09:13:30;;;;;;;1.95;0.85;;;12.60;62.30;;;;;;5037655;28;20013;-57
2022/03/31 09:16:01;;;;;;;2.47;0.90;;;12.90;61.90;;;;;;5037513;28;20056;-58
2022/03/31 09:18:29;;;;;;;3.33;1.23;;;12.90;61.10;;;;;;5037486;28;20025;-58
2022/03/31 09:20:58;;;;;;;4.43;1.00;;;12.70;60.00;;;;;;5040987;28;20060;-58
2022/03/31 09:23:27;;;;;;;2.47;1.08;;;12.50;60.60;;;;;;5041460;28;20029;-58
2022/03/31 09:26:00;;;;;;;3.53;1.20;;;12.50;61.10;;;;;;5040874;28;20429;-57
2022/03/31 09:28:26;;;;;;;4.03;1.30;;;12.30;60.40;;;;;;5041381;28;20017;-56
2022/03/31 09:30:56;;;;;;;2.20;1.13;;;12.00;60.60;;;;;;5041490;28;20032;-58
2022/03/31 09:33:36;;;;;;;2.65;1.50;;;11.90;61.30;;;;;;5041329;28;20044;-56
2022/03/31 09:36:06;;;;;;;2.05;1.10;;;11.70;60.40;;;;;;5041276;28;20055;-57
2022/03/31 09:38:35;;;;;;;2.85;1.40;;;11.60;61.10;;;;;;5041152;28;20029;-57
2022/03/31 09:41:03;;;;;;;2.53;1.48;;;11.30;61.00;;;;;;5040784;28;20043;-57
2022/03/31 09:43:40;;;;;;;2.25;1.08;;;11.50;62.20;;;;;;5041093;28;20030;-58
2022/03/31 09:46:26;;;;;;;4.28;1.52;;;11.90;62.30;;;;;;5040766;28;20499;-57
2022/03/31 09:48:54;;;;;;;3.85;1.55;;;12.10;61.60;;;;;;5041025;28;20479;-58
2022/03/31 09:51:21;;;;;;;3.75;1.75;;;12.30;60.80;;;;;;5041008;28;20417;-54
2022/03/31 09:53:48;;;;;;;4.63;2.08;;;12.40;60.50;;;;;;5040680;28;20588;-58
2022/03/31 09:56:17;;;;;;;3.63;1.67;;;12.30;60.60;;;;;;5041124;28;20079;-57
2022/03/31 09:58:46;;;;;;;3.83;1.80;;;12.10;60.00;;;;;;5040543;28;20515;-58
2022/03/31 10:01:17;;;;;;;2.28;1.30;;;11.90;60.90;;;;;;5040870;28;20031;-58
2022/03/31 10:03:44;;;;;;;2.10;1.10;;;11.90;60.50;;;;;;5040934;28;20026;-57
2022/03/31 10:06:12;;;;;;;2.53;1.20;;;11.80;60.10;;;;;;5040179;28;20053;-58
2022/03/31 10:08:40;;;;;;;3.85;1.50;;;12.00;61.30;;;;;;5040753;28;20495;-58
2022/03/31 10:11:07;;;;;;;2.22;1.10;;;12.70;60.50;;;;;;5040620;28;20104;-58
2022/03/31 10:13:47;;;;;;;3.58;1.20;;;13.10;56.50;;;;;;5040537;28;20070;-59
2022/03/31 10:16:17;;;;;;;6.18;2.58;;;13.20;55.80;;;;;;5040536;28;20041;-58
2022/03/31 10:18:47;;;;;;;3.05;1.33;;;13.30;57.00;;;;;;5040207;28;20021;-59
2022/03/31 10:21:25;;;;;;;2.00;1.23;;;13.40;57.40;;;;;;5041071;28;20104;-58
2022/03/31 10:26:34;;;;;;;3.58;1.25;;;13.60;54.40;;;;;;5039900;28;20417;-59
2022/03/31 10:29:08;;;;;;;1.85;1.08;;;13.40;54.00;;;;;;5040231;28;20045;-59
2022/03/31 10:31:45;;;;;;;3.58;1.35;;;13.30;54.90;;;;;;5038639;28;20052;-58
2022/03/31 10:34:14;;;;;;;1.60;0.85;;;13.20;54.50;;;;;;5040045;28;20026;-59
2022/03/31 10:36:47;;;;;;;3.47;1.35;;;13.10;55.50;;;;;;5039678;28;20024;-58
2022/03/31 10:39:24;;;;;;;2.85;0.90;;;13.10;53.50;;;;;;5039499;28;20025;-59
2022/03/31 10:42:16;;;;;;;2.17;1.00;;;13.30;56.10;;;;;;5039487;28;20021;-59
2022/03/31 10:44:42;;;;;;;2.05;0.90;;;14.50;54.70;;;;;;5038902;28;20042;-58
2022/03/31 10:47:11;;;;;;;3.45;1.30;;;15.50;53.70;;;;;;5039334;28;20075;-60
2022/03/31 10:49:37;;;;;;;1.95;1.10;;;16.50;50.60;;;;;;5039458;28;20033;-58
2022/03/31 10:52:17;;;;;;;2.00;0.95;;;17.00;46.00;;;;;;5039642;28;20461;-59
2022/03/31 10:54:43;;;;;;;3.08;0.80;;;17.40;49.90;;;;;;5039406;28;20029;-60
2022/03/31 10:57:13;;;;;;;1.13;0.75;;;18.10;47.10;;;;;;5039136;28;20100;-59
2022/03/31 10:59:40;;;;;;;1.48;0.80;;;18.50;47.60;;;;;;5039034;28;20029;-56
2022/03/31 11:02:19;;;;;;;0.70;0.65;;;17.90;42.80;;;;;;5037611;28;20029;-58
2022/03/31 11:04:57;;;;;;;3.33;1.38;;;17.30;45.50;;;;;;5038628;28;20086;-58
2022/03/31 11:07:25;;;;;;;4.55;1.70;;;17.40;46.50;;;;;;5038800;28;20036;-58
2022/03/31 11:10:15;;;;;;;1.92;0.70;;;17.20;44.90;;;;;;5039001;28;20032;-58
2022/03/31 11:12:42;;;;;;;2.40;0.80;;;17.00;44.30;;;;;;5038511;28;20029;-57
2022/03/31 11:15:15;;;;;;;1.25;0.60;;;16.80;44.20;;;;;;5038952;28;20051;-58
2022/03/31 11:17:42;;;;;;;3.60;0.93;;;16.70;45.90;;;;;;5038988;28;20026;-56
2022/03/31 11:20:21;;;;;;;1.25;0.73;;;16.60;43.40;;;;;;5038493;28;20485;-59
2022/03/31 11:22:55;;;;;;;3.30;0.70;;;16.10;44.50;;;;;;5038592;28;20113;-56
2022/03/31 11:25:22;;;;;;;2.45;0.50;;;15.40;45.20;;;;;;5037069;28;20052;-58
2022/03/31 11:27:49;;;;;;;1.08;0.73;;;15.70;47.50;;;;;;5038514;28;20032;-59
2022/03/31 11:30:18;;;;;;;1.15;0.70;;;16.70;46.90;;;;;;5038451;28;20024;-60
2022/03/31 11:32:45;;;;;;;1.40;0.80;;;17.60;44.60;;;;;;5038595;28;20033;-59
2022/03/31 11:35:15;;;;;;;1.30;0.60;;;18.30;43.00;;;;;;5038334;28;20029;-60
2022/03/31 11:37:45;;;;;;;1.50;0.73;;;18.90;44.50;;;;;;5038270;28;20520;-60
2022/03/31 11:40:19;;;;;;;1.05;0.75;;;19.50;41.10;;;;;;5038278;28;20401;-59
2022/03/31 11:42:48;;;;;;;;;;;19.30;39.60;;;;;;5038377;28;20100;-58
2022/03/31 11:45:26;;;;;;;3.50;1.10;;;18.90;39.90;;;;;;5038404;28;19917;-60
2022/03/31 11:48:02;;;;;;;3.10;1.20;;;19.00;41.00;;;;;;5038032;28;20022;-60
2022/03/31 11:50:28;;;;;;;2.35;1.30;;;19.50;38.80;;;;;;5038273;28;20029;-60
2022/03/31 11:52:54;;;;;;;1.25;1.10;;;19.90;40.80;;;;;;5038221;28;20102;-59
2022/03/31 11:55:21;;;;;;;8.18;5.00;;;19.80;37.30;;;;;;5038045;28;20037;-58
2022/03/31 11:57:58;;;;;;;6.50;1.60;;;19.20;37.20;;;;;;5037872;28;20021;-56
2022/03/31 12:00:26;;;;;;;4.55;1.83;;;17.90;37.90;;;;;;5038039;28;20047;-59
2022/03/31 12:03:01;;;;;;;5.78;1.70;;;16.70;40.70;;;;;;5037873;28;20025;-58
2022/03/31 12:05:27;;;;;;;4.28;1.35;;;16.10;43.10;;;;;;5037707;28;20477;-59
2022/03/31 12:07:54;;;;;;;3.70;1.52;;;16.10;42.70;;;;;;5038254;28;20096;-58
2022/03/31 12:10:20;;;;;;;3.05;1.48;;;17.00;44.70;;;;;;5037812;28;20029;-59
2022/03/31 12:12:51;;;;;;;5.10;1.50;;;18.30;44.20;;;;;;5038000;28;20048;-60
2022/03/31 12:15:35;;;;;;;14.20;6.80;;;19.50;42.50;;;;;;5037803;28;20037;-60
2022/03/31 12:18:07;;;;;;;5.53;1.60;;;20.70;41.10;;;;;;5037986;28;20033;-59
2022/03/31 12:20:36;;;;;;;3.92;1.60;;;21.00;33.70;;;;;;5037876;28;20031;-59
2022/03/31 12:23:15;;;;;;;4.65;1.48;;;20.80;35.00;;;;;;5037510;28;20040;-59
2022/03/31 12:25:41;;;;;;;4.70;2.05;;;20.40;35.80;;;;;;5037444;28;20147;-59
2022/03/31 12:28:09;;;;;;;3.40;1.73;;;19.50;34.40;;;;;;5037792;28;20465;-59
2022/03/31 12:30:50;;;;;;;8.10;1.90;;;18.20;35.80;;;;;;5037954;28;20014;-59
2022/03/31 12:33:16;;;;;;;3.67;1.77;;;17.40;36.60;;;;;;5037697;28;20041;-59
2022/03/31 12:35:49;;;;;;;6.20;2.05;;;17.50;39.10;;;;;;5037392;28;20477;-59
2022/03/31 12:38:15;;;;;;;4.68;2.00;;;18.50;38.30;;;;;;5037780;28;20075;-59
2022/03/31 12:40:43;;;;;;;6.78;1.95;;;19.60;37.80;;;;;;5037376;28;20033;-59
2022/03/31 12:43:10;;;;;;;3.58;1.67;;;20.40;36.90;;;;;;5037817;28;20104;-59
2022/03/31 12:45:36;;;;;;;3.80;2.10;;;21.20;35.30;;;;;;5037816;28;20108;-59
2022/03/31 12:48:09;;;;;;;3.85;1.50;;;21.60;31.10;;;;;;5037452;28;20025;-59